Time;durP1;ratioP1;P1;durP2;ratioP2;P2;SDS_P1;SDS_P2;PMS_P1;PMS_P2;Temp;Humidity;BMP_temperature;BMP_pressure;BME280_temperature;BME280_humidity;BME280_pressure;Samples;Min_cycle;Max_cycle;Signal;HPM_P1;HPM_P2
2021/06/01 00:02:34;;;;;;;;;;;14.90;99.90;;;;;;20407899;28;19919;-48
2021/06/01 00:12:36;;;;;;;;;;;14.70;99.90;;;;;;20441254;28;20282;-48
2021/06/01 00:22:38;;;;;;;;;;;14.60;99.90;;;;;;20404461;28;20294;-48
2021/06/01 00:32:38;;;;;;;;;;;14.40;99.90;;;;;;20400698;28;20702;-48
2021/06/01 00:42:39;;;;;;;;;;;14.20;99.90;;;;;;20409230;28;19946;-48
2021/06/01 00:52:40;;;;;;;;;;;14.10;99.90;;;;;;20405480;28;19971;-49
2021/06/01 01:02:41;;;;;;;;;;;13.90;99.90;;;;;;20398467;28;19932;-48
2021/06/01 01:12:49;;;;;;;;;;;13.90;99.90;;;;;;20406380;28;20375;-48
2021/06/01 01:22:52;;;;;;;;;;;13.70;99.90;;;;;;20399948;28;20394;-49
2021/06/01 01:33:00;;;;;;;;;;;13.60;99.90;;;;;;20393381;28;19919;-48
2021/06/01 01:43:04;;;;;;;;;;;13.50;99.90;;;;;;20404952;28;20370;-48
2021/06/01 01:53:06;;;;;;;;;;;13.40;99.90;;;;;;20402314;28;19978;-48
2021/06/01 02:03:07;;;;;;;;;;;13.30;99.90;;;;;;20393301;29;20186;-49
2021/06/01 02:13:08;;;;;;;;;;;13.30;99.90;;;;;;20401816;28;20416;-49
2021/06/01 02:33:32;;;;;;;;;;;12.90;99.90;;;;;;20392433;28;20058;-47
2021/06/01 02:43:34;;;;;;;;;;;12.80;99.90;;;;;;20395735;28;19926;-48
2021/06/01 02:53:37;;;;;;;;;;;12.60;99.90;;;;;;20405968;29;20033;-48
2021/06/01 03:03:42;;;;;;;;;;;12.60;99.90;;;;;;20399512;28;19930;-50
2021/06/01 03:13:47;;;;;;;;;;;12.60;99.90;;;;;;20418885;29;19926;-49
2021/06/01 03:23:48;;;;;;;;;;;12.50;99.90;;;;;;20406726;29;19933;-47
2021/06/01 03:33:53;;;;;;;;;;;12.30;99.90;;;;;;20402556;28;20386;-49
2021/06/01 03:43:54;;;;;;;;;;;12.30;99.90;;;;;;20402992;29;19934;-49
2021/06/01 03:53:54;;;;;;;;;;;12.20;99.90;;;;;;20399883;28;19918;-48
2021/06/01 04:03:55;;;;;;;;;;;12.10;99.90;;;;;;20400500;28;19923;-50
2021/06/01 04:13:56;;;;;;;;;;;12.00;99.90;;;;;;20401997;28;19923;-50
2021/06/01 04:23:57;;;;;;;;;;;12.10;99.90;;;;;;20400537;28;19961;-48
2021/06/01 04:33:58;;;;;;;;;;;12.30;99.90;;;;;;20405384;29;19923;-49
2021/06/01 04:43:59;;;;;;;;;;;12.40;99.90;;;;;;20396778;28;20271;-49
2021/06/01 04:54:01;;;;;;;;;;;12.60;99.90;;;;;;20396380;28;20378;-49
2021/06/01 05:04:02;;;;;;;;;;;13.10;99.90;;;;;;20390765;28;20359;-48
2021/06/01 05:14:06;;;;;;;;;;;13.60;99.90;;;;;;20395771;28;19933;-48
2021/06/01 05:24:07;;;;;;;;;;;13.90;99.90;;;;;;20399358;28;20143;-49
2021/06/01 05:34:10;;;;;;;;;;;14.60;99.90;;;;;;20397848;29;19922;-48
2021/06/01 05:44:11;;;;;;;;;;;15.40;99.90;;;;;;20305200;28;19926;-48
2021/06/01 05:54:12;;;;;;;;;;;15.80;99.90;;;;;;20172738;28;84635;-49
2021/06/01 06:05:54;;;;;;;2.17;1.13;;;16.20;99.90;;;;;;20669748;27;339778;-48
2021/06/01 06:15:55;;;;;;;1.58;0.77;;;16.70;99.90;;;;;;20818161;28;20045;-49
2021/06/01 06:25:56;;;;;;;2.53;0.80;;;17.00;99.90;;;;;;20909113;28;20423;-49
2021/06/01 06:35:57;;;;;;;1.45;0.68;;;17.40;99.90;;;;;;20908920;28;20040;-49
2021/06/01 06:46:01;;;;;;;2.72;0.90;;;17.70;99.90;;;;;;20912138;28;20471;-49
2021/06/01 06:56:02;;;;;;;2.95;0.70;;;18.00;99.90;;;;;;20913370;28;20171;-48
2021/06/01 07:06:04;;;;;;;0.98;0.57;;;18.30;99.90;;;;;;20923037;28;20435;-49
2021/06/01 07:16:06;;;;;;;1.92;0.88;;;18.70;99.90;;;;;;20847772;28;20071;-49
2021/06/01 07:26:09;;;;;;;2.33;0.80;;;19.00;99.90;;;;;;20846368;28;20733;-49
2021/06/01 07:36:10;;;;;;;2.08;0.60;;;19.10;99.90;;;;;;20849634;28;20037;-48
2021/06/01 07:46:12;;;;;;;2.80;1.65;;;19.60;99.90;;;;;;20850269;28;20041;-48
2021/06/01 07:56:13;;;;;;;2.30;0.88;;;20.00;99.20;;;;;;20849396;28;20154;-49
2021/06/01 08:06:14;;;;;;;3.38;0.95;;;20.40;99.90;;;;;;20848521;28;20037;-49
2021/06/01 08:16:15;;;;;;;1.98;0.60;;;20.60;98.50;;;;;;20848710;28;20048;-49
2021/06/01 08:26:16;;;;;;;2.70;1.02;;;21.10;96.60;;;;;;20841709;28;20037;-49
2021/06/01 08:36:18;;;;;;;1.95;1.27;;;21.40;95.90;;;;;;20845169;28;20044;-49
2021/06/01 08:46:26;;;;;;;1.42;0.70;;;21.70;93.40;;;;;;20847242;28;20051;-49
2021/06/01 08:56:27;;;;;;;1.50;0.63;;;22.20;92.00;;;;;;20839622;28;20041;-49
2021/06/01 09:06:40;;;;;;;1.55;0.60;;;22.70;89.40;;;;;;20839167;28;20041;-49
2021/06/01 09:27:17;;;;;;;1.88;0.60;;;23.40;81.30;;;;;;20835003;28;21530;-49
2021/06/01 09:37:21;;;;;;;0.90;0.40;;;23.70;77.00;;;;;;20840546;28;20044;-49
2021/06/01 09:47:40;;;;;;;2.25;0.68;;;23.90;70.90;;;;;;20834090;28;20044;-48
2021/06/01 09:57:44;;;;;;;1.10;0.70;;;23.90;69.00;;;;;;20832772;28;20535;-49
2021/06/01 10:07:47;;;;;;;1.40;0.50;;;24.20;72.30;;;;;;20835880;28;20492;-48
2021/06/01 10:17:49;;;;;;;2.22;0.93;;;24.40;66.90;;;;;;20836812;28;20396;-49
2021/06/01 10:27:52;;;;;;;1.38;0.60;;;24.70;59.40;;;;;;20832574;28;20421;-49
2021/06/01 10:58:42;;;;;;;2.17;0.85;;;25.20;60.10;;;;;;20853263;28;20397;-49
2021/06/01 11:08:44;;;;;;;2.03;0.77;;;26.10;55.40;;;;;;20854726;28;20120;-49
2021/06/01 11:18:55;;;;;;;1.45;0.60;;;25.50;56.70;;;;;;20857417;28;20033;-49
2021/06/01 11:39:47;;;;;;;1.50;0.80;;;26.80;52.90;;;;;;20849901;28;20049;-49
2021/06/01 12:20:53;;;;;;;1.35;0.63;;;27.10;48.70;;;;;;20839072;28;20037;-49
2021/06/01 12:31:02;;;;;;;0.88;0.35;;;27.70;48.20;;;;;;20810485;28;20045;-49
2021/06/01 13:36:20;;;;;;;0.85;0.38;;;28.90;42.20;;;;;;20833158;28;20048;-50
2021/06/01 14:56:01;;;;;;;2.60;0.70;;;27.10;48.40;;;;;;20855430;28;20051;-50
2021/06/01 17:40:44;;;;;;;0.95;0.50;;;25.40;50.30;;;;;;20833528;28;20068;-49
2021/06/01 17:50:45;;;;;;;2.35;0.70;;;25.20;51.40;;;;;;20746113;28;20044;-49
2021/06/01 18:00:47;;;;;;;1.33;0.70;;;25.00;52.00;;;;;;20831268;28;20094;-49
2021/06/01 18:52:56;;;;;;;1.27;0.85;;;24.30;52.80;;;;;;20833247;28;20561;-50
2021/06/01 19:53:40;;;;;;;1.27;0.73;;;22.50;67.30;;;;;;20707015;28;20399;-49
2021/06/01 20:03:42;;;;;;;1.60;0.73;;;22.00;79.40;;;;;;20699772;28;20532;-49
2021/06/01 20:13:43;;;;;;;1.67;0.60;;;21.50;92.50;;;;;;20703782;28;20038;-49
2021/06/01 20:23:46;;;;;;;2.47;1.05;;;20.90;95.90;;;;;;20694411;28;20283;-49
2021/06/01 20:33:48;;;;;;;1.63;0.68;;;20.50;92.90;;;;;;20684553;28;20496;-49
2021/06/01 20:43:49;;;;;;;3.97;0.77;;;20.50;94.60;;;;;;20604907;28;20052;-49
2021/06/01 20:53:52;;;;;;;1.02;0.50;;;20.60;94.00;;;;;;20693106;28;20038;-49
2021/06/01 21:03:55;;;;;;;1.48;0.77;;;20.40;99.40;;;;;;20682887;28;20045;-49
2021/06/01 21:13:57;;;;;;;4.68;0.73;;;19.90;99.90;;;;;;20710703;28;20034;-49
2021/06/01 21:23:59;;;;;;;1.50;0.80;;;19.40;99.90;;;;;;20705998;28;20056;-49
2021/06/01 21:34:05;;;;;;;2.42;1.08;;;19.00;99.90;;;;;;20693942;28;20026;-49
2021/06/01 21:44:08;;;;;;;2.20;0.85;;;18.70;99.90;;;;;;20694765;28;20076;-49
2021/06/01 21:54:10;;;;;;;4.15;0.90;;;18.40;99.90;;;;;;20695872;28;20128;-49
2021/06/01 22:04:12;;;;;;;1.90;0.95;;;18.10;99.90;;;;;;20686075;28;20046;-49
2021/06/01 22:14:16;;;;;;;4.75;0.77;;;17.90;99.90;;;;;;20689825;28;20045;-49
2021/06/01 22:24:17;;;;;;;2.13;0.98;;;17.70;99.90;;;;;;20694846;28;20501;-49
2021/06/01 22:34:20;;;;;;;1.63;0.70;;;17.50;99.90;;;;;;20688358;28;20042;-49
2021/06/01 22:44:21;;;;;;;2.25;1.00;;;17.30;99.90;;;;;;20691842;28;20041;-49
2021/06/01 22:54:22;;;;;;;2.10;0.77;;;17.20;99.90;;;;;;20719106;28;20050;-49
2021/06/01 23:04:25;;;;;;;3.78;0.80;;;17.10;99.90;;;;;;20705203;28;20069;-49
2021/06/01 23:14:27;;;;;;;2.22;0.93;;;16.80;99.90;;;;;;20713400;28;20065;-48
2021/06/01 23:24:28;;;;;;;3.45;1.55;;;16.70;99.90;;;;;;20654641;28;20369;-48
2021/06/01 23:34:29;;;;;;;1.60;0.75;;;16.60;99.90;;;;;;20673704;28;20048;-49
2021/06/01 23:44:30;;;;;;;3.42;1.70;;;16.30;99.90;;;;;;20692212;28;20188;-48
2021/06/01 23:54:32;;;;;;;2.50;1.52;;;16.20;99.90;;;;;;20656264;28;20157;-48
